sensor_id;sensor_type;location;lat;lon;timestamp;P1;durP1;ratioP1;P2;durP2;ratioP2
24233;SDS011;12365;43.554;1.388;2022-12-05T00:00:16;29.63;;;17.17;;
24233;SDS011;12365;43.554;1.388;2022-12-05T00:02:41;33.28;;;18.98;;
24233;SDS011;12365;43.554;1.388;2022-12-05T00:05:09;44.78;;;23.48;;
24233;SDS011;12365;43.554;1.388;2022-12-05T00:07:35;43.42;;;24.42;;
24233;SDS011;12365;43.554;1.388;2022-12-05T00:10:00;40.65;;;21.77;;
24233;SDS011;12365;43.554;1.388;2022-12-05T00:12:25;41.17;;;21.92;;
24233;SDS011;12365;43.554;1.388;2022-12-05T00:14:51;42.13;;;23.33;;
24233;SDS011;12365;43.554;1.388;2022-12-05T00:17:16;75.10;;;38.35;;
24233;SDS011;12365;43.554;1.388;2022-12-05T00:19:42;94.90;;;51.55;;
24233;SDS011;12365;43.554;1.388;2022-12-05T00:22:07;51.13;;;28.73;;
24233;SDS011;12365;43.554;1.388;2022-12-05T00:24:33;50.67;;;27.67;;
24233;SDS011;12365;43.554;1.388;2022-12-05T00:26:58;57.90;;;29.45;;
24233;SDS011;12365;43.554;1.388;2022-12-05T00:29:23;51.17;;;25.73;;
24233;SDS011;12365;43.554;1.388;2022-12-05T00:31:49;47.40;;;26.45;;
24233;SDS011;12365;43.554;1.388;2022-12-05T00:34:14;44.33;;;23.75;;
24233;SDS011;12365;43.554;1.388;2022-12-05T00:36:40;36.65;;;21.42;;
24233;SDS011;12365;43.554;1.388;2022-12-05T00:39:07;49.05;;;27.50;;
24233;SDS011;12365;43.554;1.388;2022-12-05T00:41:34;42.22;;;24.17;;
24233;SDS011;12365;43.554;1.388;2022-12-05T00:44:00;38.28;;;21.35;;
24233;SDS011;12365;43.554;1.388;2022-12-05T00:46:28;38.22;;;22.48;;
24233;SDS011;12365;43.554;1.388;2022-12-05T00:48:55;38.95;;;22.50;;
24233;SDS011;12365;43.554;1.388;2022-12-05T00:51:23;39.97;;;21.52;;
24233;SDS011;12365;43.554;1.388;2022-12-05T00:53:53;39.60;;;21.70;;
24233;SDS011;12365;43.554;1.388;2022-12-05T00:56:20;38.95;;;21.05;;
24233;SDS011;12365;43.554;1.388;2022-12-05T00:58:48;37.42;;;21.42;;
24233;SDS011;12365;43.554;1.388;2022-12-05T01:01:15;32.75;;;20.05;;
24233;SDS011;12365;43.554;1.388;2022-12-05T01:03:43;37.33;;;21.02;;
24233;SDS011;12365;43.554;1.388;2022-12-05T01:06:10;40.83;;;22.45;;
24233;SDS011;12365;43.554;1.388;2022-12-05T01:08:36;39.53;;;21.38;;
24233;SDS011;12365;43.554;1.388;2022-12-05T01:11:02;40.13;;;22.55;;
24233;SDS011;12365;43.554;1.388;2022-12-05T01:13:29;39.28;;;21.42;;
24233;SDS011;12365;43.554;1.388;2022-12-05T01:15:55;41.95;;;22.83;;
24233;SDS011;12365;43.554;1.388;2022-12-05T01:18:21;38.15;;;21.60;;
24233;SDS011;12365;43.554;1.388;2022-12-05T01:20:47;37.03;;;19.70;;
24233;SDS011;12365;43.554;1.388;2022-12-05T01:23:13;35.95;;;20.17;;
24233;SDS011;12365;43.554;1.388;2022-12-05T01:25:40;35.25;;;19.67;;
24233;SDS011;12365;43.554;1.388;2022-12-05T01:28:07;32.58;;;19.42;;
24233;SDS011;12365;43.554;1.388;2022-12-05T01:30:36;34.30;;;19.05;;
24233;SDS011;12365;43.554;1.388;2022-12-05T01:33:03;35.17;;;20.17;;
24233;SDS011;12365;43.554;1.388;2022-12-05T01:35:33;36.72;;;20.10;;
24233;SDS011;12365;43.554;1.388;2022-12-05T01:37:59;35.65;;;19.63;;
24233;SDS011;12365;43.554;1.388;2022-12-05T01:40:25;34.42;;;19.00;;
24233;SDS011;12365;43.554;1.388;2022-12-05T01:42:50;36.40;;;19.67;;
24233;SDS011;12365;43.554;1.388;2022-12-05T01:45:17;33.22;;;18.40;;
24233;SDS011;12365;43.554;1.388;2022-12-05T01:47:50;29.85;;;17.48;;
24233;SDS011;12365;43.554;1.388;2022-12-05T01:50:17;29.45;;;16.58;;
24233;SDS011;12365;43.554;1.388;2022-12-05T01:52:43;31.88;;;17.15;;
24233;SDS011;12365;43.554;1.388;2022-12-05T01:55:10;34.95;;;18.92;;
24233;SDS011;12365;43.554;1.388;2022-12-05T01:57:37;36.65;;;19.23;;
24233;SDS011;12365;43.554;1.388;2022-12-05T02:00:14;29.80;;;16.85;;
24233;SDS011;12365;43.554;1.388;2022-12-05T02:02:43;31.05;;;17.15;;
24233;SDS011;12365;43.554;1.388;2022-12-05T02:05:17;27.25;;;16.70;;
24233;SDS011;12365;43.554;1.388;2022-12-05T02:07:46;25.88;;;15.70;;
24233;SDS011;12365;43.554;1.388;2022-12-05T02:10:12;38.67;;;20.63;;
24233;SDS011;12365;43.554;1.388;2022-12-05T02:12:38;37.42;;;19.88;;
24233;SDS011;12365;43.554;1.388;2022-12-05T02:15:09;35.28;;;19.15;;
24233;SDS011;12365;43.554;1.388;2022-12-05T02:20:20;38.10;;;19.33;;
24233;SDS011;12365;43.554;1.388;2022-12-05T02:31:34;35.70;;;18.95;;
24233;SDS011;12365;43.554;1.388;2022-12-05T02:34:26;39.43;;;20.90;;
24233;SDS011;12365;43.554;1.388;2022-12-05T02:37:11;40.80;;;20.85;;
24233;SDS011;12365;43.554;1.388;2022-12-05T02:39:50;34.38;;;19.30;;
24233;SDS011;12365;43.554;1.388;2022-12-05T02:45:09;35.92;;;18.98;;
24233;SDS011;12365;43.554;1.388;2022-12-05T02:47:42;40.50;;;19.75;;
24233;SDS011;12365;43.554;1.388;2022-12-05T02:50:12;29.65;;;17.42;;
24233;SDS011;12365;43.554;1.388;2022-12-05T02:52:42;32.90;;;18.25;;
24233;SDS011;12365;43.554;1.388;2022-12-05T02:55:11;32.35;;;18.08;;
24233;SDS011;12365;43.554;1.388;2022-12-05T02:57:38;30.95;;;17.67;;
24233;SDS011;12365;43.554;1.388;2022-12-05T03:00:10;30.55;;;17.50;;
24233;SDS011;12365;43.554;1.388;2022-12-05T03:02:37;30.88;;;17.42;;
24233;SDS011;12365;43.554;1.388;2022-12-05T03:07:35;30.65;;;17.15;;
24233;SDS011;12365;43.554;1.388;2022-12-05T03:10:04;30.33;;;17.50;;
24233;SDS011;12365;43.554;1.388;2022-12-05T03:12:36;29.80;;;16.73;;
24233;SDS011;12365;43.554;1.388;2022-12-05T03:15:10;35.47;;;17.23;;
24233;SDS011;12365;43.554;1.388;2022-12-05T03:17:46;31.38;;;16.70;;
24233;SDS011;12365;43.554;1.388;2022-12-05T03:20:21;29.35;;;16.60;;
24233;SDS011;12365;43.554;1.388;2022-12-05T03:25:21;29.25;;;17.02;;
24233;SDS011;12365;43.554;1.388;2022-12-05T03:27:56;31.52;;;16.77;;
24233;SDS011;12365;43.554;1.388;2022-12-05T03:30:42;30.75;;;16.52;;
24233;SDS011;12365;43.554;1.388;2022-12-05T03:38:25;32.72;;;17.25;;
24233;SDS011;12365;43.554;1.388;2022-12-05T03:40:52;30.30;;;16.88;;
24233;SDS011;12365;43.554;1.388;2022-12-05T03:46:23;31.73;;;16.08;;
24233;SDS011;12365;43.554;1.388;2022-12-05T03:49:08;30.77;;;16.20;;
24233;SDS011;12365;43.554;1.388;2022-12-05T03:51:52;32.72;;;17.85;;
24233;SDS011;12365;43.554;1.388;2022-12-05T03:54:24;36.38;;;18.13;;
24233;SDS011;12365;43.554;1.388;2022-12-05T03:57:03;31.25;;;16.75;;
24233;SDS011;12365;43.554;1.388;2022-12-05T04:02:20;26.95;;;15.30;;
24233;SDS011;12365;43.554;1.388;2022-12-05T04:04:57;29.35;;;16.05;;
24233;SDS011;12365;43.554;1.388;2022-12-05T04:07:28;27.88;;;15.35;;
24233;SDS011;12365;43.554;1.388;2022-12-05T04:09:56;28.23;;;15.13;;
24233;SDS011;12365;43.554;1.388;2022-12-05T04:12:27;27.27;;;14.80;;
24233;SDS011;12365;43.554;1.388;2022-12-05T04:15:05;28.63;;;16.13;;
24233;SDS011;12365;43.554;1.388;2022-12-05T04:17:55;24.67;;;13.90;;
24233;SDS011;12365;43.554;1.388;2022-12-05T04:20:26;28.05;;;15.85;;
24233;SDS011;12365;43.554;1.388;2022-12-05T04:23:20;36.67;;;17.88;;
24233;SDS011;12365;43.554;1.388;2022-12-05T04:28:24;23.55;;;13.88;;
24233;SDS011;12365;43.554;1.388;2022-12-05T04:38:50;22.25;;;12.82;;
24233;SDS011;12365;43.554;1.388;2022-12-05T04:41:29;22.42;;;13.02;;
24233;SDS011;12365;43.554;1.388;2022-12-05T04:43:59;20.95;;;12.55;;
24233;SDS011;12365;43.554;1.388;2022-12-05T04:46:28;20.67;;;11.80;;
24233;SDS011;12365;43.554;1.388;2022-12-05T04:48:55;22.20;;;12.63;;
24233;SDS011;12365;43.554;1.388;2022-12-05T04:51:25;23.98;;;12.55;;
24233;SDS011;12365;43.554;1.388;2022-12-05T04:54:03;21.73;;;12.20;;
24233;SDS011;12365;43.554;1.388;2022-12-05T04:56:35;23.15;;;11.88;;
24233;SDS011;12365;43.554;1.388;2022-12-05T04:59:02;24.67;;;12.82;;
24233;SDS011;12365;43.554;1.388;2022-12-05T05:01:36;19.98;;;12.18;;
24233;SDS011;12365;43.554;1.388;2022-12-05T05:04:12;22.95;;;13.32;;
24233;SDS011;12365;43.554;1.388;2022-12-05T05:06:41;25.25;;;14.43;;
24233;SDS011;12365;43.554;1.388;2022-12-05T05:09:07;27.80;;;15.23;;
24233;SDS011;12365;43.554;1.388;2022-12-05T05:11:32;25.92;;;14.30;;
24233;SDS011;12365;43.554;1.388;2022-12-05T05:13:59;22.02;;;12.52;;
24233;SDS011;12365;43.554;1.388;2022-12-05T05:16:30;20.48;;;11.73;;
24233;SDS011;12365;43.554;1.388;2022-12-05T05:18:57;22.00;;;12.60;;
24233;SDS011;12365;43.554;1.388;2022-12-05T05:21:23;19.75;;;11.80;;
24233;SDS011;12365;43.554;1.388;2022-12-05T05:23:51;20.40;;;11.95;;
24233;SDS011;12365;43.554;1.388;2022-12-05T05:26:17;20.90;;;12.50;;
24233;SDS011;12365;43.554;1.388;2022-12-05T05:28:44;23.05;;;13.50;;
24233;SDS011;12365;43.554;1.388;2022-12-05T05:31:10;23.67;;;12.98;;
24233;SDS011;12365;43.554;1.388;2022-12-05T05:33:36;19.63;;;11.95;;
24233;SDS011;12365;43.554;1.388;2022-12-05T05:36:02;25.63;;;12.05;;
24233;SDS011;12365;43.554;1.388;2022-12-05T05:38:47;21.88;;;11.88;;
24233;SDS011;12365;43.554;1.388;2022-12-05T05:43:44;21.75;;;12.50;;
24233;SDS011;12365;43.554;1.388;2022-12-05T05:46:10;20.13;;;12.20;;
24233;SDS011;12365;43.554;1.388;2022-12-05T05:48:37;23.80;;;11.80;;
24233;SDS011;12365;43.554;1.388;2022-12-05T05:51:03;19.30;;;11.35;;
24233;SDS011;12365;43.554;1.388;2022-12-05T05:53:29;18.08;;;11.30;;
24233;SDS011;12365;43.554;1.388;2022-12-05T05:55:55;20.52;;;12.10;;
24233;SDS011;12365;43.554;1.388;2022-12-05T05:58:21;23.10;;;12.00;;
24233;SDS011;12365;43.554;1.388;2022-12-05T06:00:46;22.17;;;12.20;;
24233;SDS011;12365;43.554;1.388;2022-12-05T06:03:12;20.83;;;11.27;;
24233;SDS011;12365;43.554;1.388;2022-12-05T06:05:37;20.90;;;11.73;;
24233;SDS011;12365;43.554;1.388;2022-12-05T06:08:03;27.83;;;12.75;;
24233;SDS011;12365;43.554;1.388;2022-12-05T06:10:29;21.45;;;12.68;;
24233;SDS011;12365;43.554;1.388;2022-12-05T06:12:55;21.65;;;12.20;;
24233;SDS011;12365;43.554;1.388;2022-12-05T06:15:21;21.63;;;11.88;;
24233;SDS011;12365;43.554;1.388;2022-12-05T06:17:47;23.30;;;11.93;;
24233;SDS011;12365;43.554;1.388;2022-12-05T06:20:12;24.75;;;12.18;;
24233;SDS011;12365;43.554;1.388;2022-12-05T06:22:38;22.13;;;12.63;;
24233;SDS011;12365;43.554;1.388;2022-12-05T06:25:03;24.08;;;12.75;;
24233;SDS011;12365;43.554;1.388;2022-12-05T06:27:30;24.27;;;13.63;;
24233;SDS011;12365;43.554;1.388;2022-12-05T06:29:56;22.33;;;12.30;;
24233;SDS011;12365;43.554;1.388;2022-12-05T06:32:21;24.92;;;12.05;;
24233;SDS011;12365;43.554;1.388;2022-12-05T06:34:47;24.65;;;12.13;;
24233;SDS011;12365;43.554;1.388;2022-12-05T06:37:12;24.20;;;12.57;;
24233;SDS011;12365;43.554;1.388;2022-12-05T06:39:38;23.63;;;11.93;;
24233;SDS011;12365;43.554;1.388;2022-12-05T06:42:03;20.02;;;11.57;;
24233;SDS011;12365;43.554;1.388;2022-12-05T06:44:29;18.58;;;11.23;;
24233;SDS011;12365;43.554;1.388;2022-12-05T06:46:54;19.35;;;11.63;;
24233;SDS011;12365;43.554;1.388;2022-12-05T06:49:20;22.45;;;11.52;;
24233;SDS011;12365;43.554;1.388;2022-12-05T06:51:50;21.10;;;11.20;;
24233;SDS011;12365;43.554;1.388;2022-12-05T06:54:15;21.23;;;11.30;;
24233;SDS011;12365;43.554;1.388;2022-12-05T06:56:41;20.60;;;11.98;;
24233;SDS011;12365;43.554;1.388;2022-12-05T06:59:06;26.13;;;12.48;;
24233;SDS011;12365;43.554;1.388;2022-12-05T07:01:31;21.70;;;11.88;;
24233;SDS011;12365;43.554;1.388;2022-12-05T07:04:13;20.42;;;12.07;;
24233;SDS011;12365;43.554;1.388;2022-12-05T07:06:41;25.33;;;14.35;;
24233;SDS011;12365;43.554;1.388;2022-12-05T07:09:08;30.35;;;16.00;;
24233;SDS011;12365;43.554;1.388;2022-12-05T07:11:33;27.40;;;13.02;;
24233;SDS011;12365;43.554;1.388;2022-12-05T07:13:59;33.88;;;15.30;;
24233;SDS011;12365;43.554;1.388;2022-12-05T07:16:26;29.02;;;15.30;;
24233;SDS011;12365;43.554;1.388;2022-12-05T07:18:51;30.23;;;16.50;;
24233;SDS011;12365;43.554;1.388;2022-12-05T07:21:17;28.42;;;15.68;;
24233;SDS011;12365;43.554;1.388;2022-12-05T07:23:44;29.52;;;14.98;;
24233;SDS011;12365;43.554;1.388;2022-12-05T07:26:11;27.73;;;14.40;;
24233;SDS011;12365;43.554;1.388;2022-12-05T07:28:38;32.10;;;15.45;;
24233;SDS011;12365;43.554;1.388;2022-12-05T07:31:08;31.40;;;16.10;;
24233;SDS011;12365;43.554;1.388;2022-12-05T07:36:01;30.98;;;15.45;;
24233;SDS011;12365;43.554;1.388;2022-12-05T07:38:29;31.20;;;16.58;;
24233;SDS011;12365;43.554;1.388;2022-12-05T07:40:54;30.27;;;16.42;;
24233;SDS011;12365;43.554;1.388;2022-12-05T07:43:20;40.22;;;18.27;;
24233;SDS011;12365;43.554;1.388;2022-12-05T07:45:46;43.97;;;18.88;;
24233;SDS011;12365;43.554;1.388;2022-12-05T07:48:11;41.80;;;17.25;;
24233;SDS011;12365;43.554;1.388;2022-12-05T07:50:36;31.52;;;17.15;;
24233;SDS011;12365;43.554;1.388;2022-12-05T07:53:02;33.22;;;17.58;;
24233;SDS011;12365;43.554;1.388;2022-12-05T07:55:28;30.95;;;17.63;;
24233;SDS011;12365;43.554;1.388;2022-12-05T07:57:53;32.90;;;18.30;;
24233;SDS011;12365;43.554;1.388;2022-12-05T08:00:19;32.10;;;18.42;;
24233;SDS011;12365;43.554;1.388;2022-12-05T08:02:45;34.33;;;19.23;;
24233;SDS011;12365;43.554;1.388;2022-12-05T08:05:10;34.65;;;17.98;;
24233;SDS011;12365;43.554;1.388;2022-12-05T08:07:36;37.67;;;17.77;;
24233;SDS011;12365;43.554;1.388;2022-12-05T08:10:02;35.03;;;16.88;;
24233;SDS011;12365;43.554;1.388;2022-12-05T08:12:28;36.08;;;16.20;;
24233;SDS011;12365;43.554;1.388;2022-12-05T08:14:53;58.90;;;17.75;;
24233;SDS011;12365;43.554;1.388;2022-12-05T08:17:19;37.45;;;17.90;;
24233;SDS011;12365;43.554;1.388;2022-12-05T08:19:44;36.78;;;15.60;;
24233;SDS011;12365;43.554;1.388;2022-12-05T08:22:09;31.10;;;15.30;;
24233;SDS011;12365;43.554;1.388;2022-12-05T08:24:35;29.60;;;15.35;;
24233;SDS011;12365;43.554;1.388;2022-12-05T08:27:00;33.10;;;14.07;;
24233;SDS011;12365;43.554;1.388;2022-12-05T08:29:26;29.52;;;13.85;;
24233;SDS011;12365;43.554;1.388;2022-12-05T08:31:51;28.85;;;14.88;;
24233;SDS011;12365;43.554;1.388;2022-12-05T08:34:17;26.42;;;14.00;;
24233;SDS011;12365;43.554;1.388;2022-12-05T08:36:44;26.30;;;13.60;;
24233;SDS011;12365;43.554;1.388;2022-12-05T08:39:10;33.53;;;13.35;;
24233;SDS011;12365;43.554;1.388;2022-12-05T08:41:39;24.65;;;12.77;;
24233;SDS011;12365;43.554;1.388;2022-12-05T08:44:06;27.42;;;12.95;;
24233;SDS011;12365;43.554;1.388;2022-12-05T08:46:34;27.42;;;13.45;;
24233;SDS011;12365;43.554;1.388;2022-12-05T08:49:02;27.85;;;12.65;;
24233;SDS011;12365;43.554;1.388;2022-12-05T08:51:28;27.42;;;12.93;;
24233;SDS011;12365;43.554;1.388;2022-12-05T08:53:54;24.25;;;11.98;;
24233;SDS011;12365;43.554;1.388;2022-12-05T08:56:20;34.25;;;12.52;;
24233;SDS011;12365;43.554;1.388;2022-12-05T08:58:46;37.13;;;13.98;;
24233;SDS011;12365;43.554;1.388;2022-12-05T09:01:19;39.50;;;13.75;;
24233;SDS011;12365;43.554;1.388;2022-12-05T09:03:45;29.30;;;12.57;;
24233;SDS011;12365;43.554;1.388;2022-12-05T09:06:12;25.42;;;11.90;;
24233;SDS011;12365;43.554;1.388;2022-12-05T09:08:42;32.08;;;13.50;;
24233;SDS011;12365;43.554;1.388;2022-12-05T09:11:09;37.70;;;14.02;;
24233;SDS011;12365;43.554;1.388;2022-12-05T09:13:38;33.50;;;12.77;;
24233;SDS011;12365;43.554;1.388;2022-12-05T09:16:08;36.90;;;13.13;;
24233;SDS011;12365;43.554;1.388;2022-12-05T09:18:35;39.30;;;20.42;;
24233;SDS011;12365;43.554;1.388;2022-12-05T09:21:07;39.50;;;17.17;;
24233;SDS011;12365;43.554;1.388;2022-12-05T09:23:37;37.45;;;16.02;;
24233;SDS011;12365;43.554;1.388;2022-12-05T09:26:03;27.58;;;14.43;;
24233;SDS011;12365;43.554;1.388;2022-12-05T09:28:30;24.17;;;12.70;;
24233;SDS011;12365;43.554;1.388;2022-12-05T09:31:00;23.88;;;11.75;;
24233;SDS011;12365;43.554;1.388;2022-12-05T09:33:28;25.40;;;11.30;;
24233;SDS011;12365;43.554;1.388;2022-12-05T09:35:55;27.92;;;10.98;;
24233;SDS011;12365;43.554;1.388;2022-12-05T09:38:21;28.02;;;10.73;;
24233;SDS011;12365;43.554;1.388;2022-12-05T09:40:48;25.98;;;10.65;;
24233;SDS011;12365;43.554;1.388;2022-12-05T09:43:30;26.92;;;11.52;;
24233;SDS011;12365;43.554;1.388;2022-12-05T09:46:19;20.92;;;11.07;;
24233;SDS011;12365;43.554;1.388;2022-12-05T09:49:14;23.48;;;11.00;;
24233;SDS011;12365;43.554;1.388;2022-12-05T09:51:41;25.65;;;11.25;;
24233;SDS011;12365;43.554;1.388;2022-12-05T09:54:10;31.20;;;14.75;;
24233;SDS011;12365;43.554;1.388;2022-12-05T09:56:37;22.48;;;10.13;;
24233;SDS011;12365;43.554;1.388;2022-12-05T09:59:03;18.75;;;8.30;;
24233;SDS011;12365;43.554;1.388;2022-12-05T10:09:22;32.83;;;19.10;;
24233;SDS011;12365;43.554;1.388;2022-12-05T10:12:05;10.50;;;6.47;;
24233;SDS011;12365;43.554;1.388;2022-12-05T10:17:34;9.32;;;6.20;;
24233;SDS011;12365;43.554;1.388;2022-12-05T10:20:12;23.88;;;14.02;;
24233;SDS011;12365;43.554;1.388;2022-12-05T10:22:46;41.92;;;26.10;;
24233;SDS011;12365;43.554;1.388;2022-12-05T10:25:20;13.45;;;9.10;;
24233;SDS011;12365;43.554;1.388;2022-12-05T10:27:50;31.80;;;23.90;;
24233;SDS011;12365;43.554;1.388;2022-12-05T10:30:22;16.33;;;8.25;;
24233;SDS011;12365;43.554;1.388;2022-12-05T10:32:55;9.30;;;5.65;;
24233;SDS011;12365;43.554;1.388;2022-12-05T10:37:58;10.03;;;5.67;;
24233;SDS011;12365;43.554;1.388;2022-12-05T10:40:32;9.15;;;5.88;;
24233;SDS011;12365;43.554;1.388;2022-12-05T10:43:03;8.02;;;4.72;;
24233;SDS011;12365;43.554;1.388;2022-12-05T10:45:29;7.88;;;5.07;;
24233;SDS011;12365;43.554;1.388;2022-12-05T10:47:55;8.57;;;6.03;;
24233;SDS011;12365;43.554;1.388;2022-12-05T10:50:23;11.82;;;8.00;;
24233;SDS011;12365;43.554;1.388;2022-12-05T10:52:54;11.63;;;8.25;;
24233;SDS011;12365;43.554;1.388;2022-12-05T10:55:21;7.60;;;4.60;;
24233;SDS011;12365;43.554;1.388;2022-12-05T10:57:50;10.48;;;5.57;;
24233;SDS011;12365;43.554;1.388;2022-12-05T11:00:31;12.82;;;7.28;;
24233;SDS011;12365;43.554;1.388;2022-12-05T11:02:57;12.60;;;7.18;;
24233;SDS011;12365;43.554;1.388;2022-12-05T11:05:28;11.75;;;6.10;;
24233;SDS011;12365;43.554;1.388;2022-12-05T11:07:55;5.80;;;3.47;;
24233;SDS011;12365;43.554;1.388;2022-12-05T11:10:28;10.90;;;4.80;;
24233;SDS011;12365;43.554;1.388;2022-12-05T11:12:57;12.90;;;7.60;;
24233;SDS011;12365;43.554;1.388;2022-12-05T11:15:24;8.02;;;5.28;;
24233;SDS011;12365;43.554;1.388;2022-12-05T11:17:52;8.20;;;4.70;;
24233;SDS011;12365;43.554;1.388;2022-12-05T11:22:45;6.03;;;3.80;;
24233;SDS011;12365;43.554;1.388;2022-12-05T11:25:47;17.42;;;10.82;;
24233;SDS011;12365;43.554;1.388;2022-12-05T11:33:59;5.57;;;3.22;;
24233;SDS011;12365;43.554;1.388;2022-12-05T11:36:36;8.20;;;4.43;;
24233;SDS011;12365;43.554;1.388;2022-12-05T11:39:04;13.93;;;8.77;;
24233;SDS011;12365;43.554;1.388;2022-12-05T11:56:57;6.80;;;4.70;;
24233;SDS011;12365;43.554;1.388;2022-12-05T11:59:42;5.03;;;3.78;;
24233;SDS011;12365;43.554;1.388;2022-12-05T12:07:23;6.40;;;4.00;;
24233;SDS011;12365;43.554;1.388;2022-12-05T12:24:11;8.65;;;3.80;;
24233;SDS011;12365;43.554;1.388;2022-12-05T12:50:18;4.45;;;2.90;;
24233;SDS011;12365;43.554;1.388;2022-12-05T12:55:58;6.65;;;4.78;;
24233;SDS011;12365;43.554;1.388;2022-12-05T13:04:20;7.55;;;2.40;;
24233;SDS011;12365;43.554;1.388;2022-12-05T13:12:06;3.97;;;2.10;;
24233;SDS011;12365;43.554;1.388;2022-12-05T13:14:35;3.20;;;2.00;;
24233;SDS011;12365;43.554;1.388;2022-12-05T13:17:03;5.05;;;2.10;;
24233;SDS011;12365;43.554;1.388;2022-12-05T13:19:41;5.10;;;2.70;;
24233;SDS011;12365;43.554;1.388;2022-12-05T13:22:15;4.25;;;2.15;;
24233;SDS011;12365;43.554;1.388;2022-12-05T13:24:42;2.80;;;2.13;;
24233;SDS011;12365;43.554;1.388;2022-12-05T13:27:12;2.47;;;1.45;;
24233;SDS011;12365;43.554;1.388;2022-12-05T13:30:02;2.38;;;1.50;;
24233;SDS011;12365;43.554;1.388;2022-12-05T13:35:08;2.85;;;1.65;;
24233;SDS011;12365;43.554;1.388;2022-12-05T13:37:36;4.75;;;1.75;;
24233;SDS011;12365;43.554;1.388;2022-12-05T13:40:31;3.05;;;1.60;;
24233;SDS011;12365;43.554;1.388;2022-12-05T13:43:19;5.05;;;1.90;;
24233;SDS011;12365;43.554;1.388;2022-12-05T13:45:57;4.20;;;2.80;;
24233;SDS011;12365;43.554;1.388;2022-12-05T13:48:36;2.47;;;1.60;;
24233;SDS011;12365;43.554;1.388;2022-12-05T13:51:21;4.13;;;1.67;;
24233;SDS011;12365;43.554;1.388;2022-12-05T13:54:14;25.13;;;16.35;;
24233;SDS011;12365;43.554;1.388;2022-12-05T13:56:51;2.60;;;1.90;;
24233;SDS011;12365;43.554;1.388;2022-12-05T14:07:42;3.28;;;1.92;;
24233;SDS011;12365;43.554;1.388;2022-12-05T14:10:11;7.47;;;1.98;;
24233;SDS011;12365;43.554;1.388;2022-12-05T14:15:41;7.20;;;4.05;;
24233;SDS011;12365;43.554;1.388;2022-12-05T14:26:14;2.28;;;1.90;;
24233;SDS011;12365;43.554;1.388;2022-12-05T14:34:05;4.70;;;2.13;;
24233;SDS011;12365;43.554;1.388;2022-12-05T14:36:37;2.75;;;2.10;;
24233;SDS011;12365;43.554;1.388;2022-12-05T14:39:21;2.65;;;1.98;;
24233;SDS011;12365;43.554;1.388;2022-12-05T14:41:57;4.43;;;2.30;;
24233;SDS011;12365;43.554;1.388;2022-12-05T14:44:25;4.20;;;2.42;;
24233;SDS011;12365;43.554;1.388;2022-12-05T14:46:56;2.92;;;2.33;;
24233;SDS011;12365;43.554;1.388;2022-12-05T14:52:18;3.92;;;2.42;;
24233;SDS011;12365;43.554;1.388;2022-12-05T14:54:47;4.68;;;2.40;;
24233;SDS011;12365;43.554;1.388;2022-12-05T14:57:13;4.38;;;2.50;;
24233;SDS011;12365;43.554;1.388;2022-12-05T15:02:10;4.43;;;2.60;;
24233;SDS011;12365;43.554;1.388;2022-12-05T15:04:51;6.93;;;3.00;;
24233;SDS011;12365;43.554;1.388;2022-12-05T15:07:26;8.73;;;2.85;;
24233;SDS011;12365;43.554;1.388;2022-12-05T15:10:05;5.18;;;2.97;;
24233;SDS011;12365;43.554;1.388;2022-12-05T15:20:59;6.85;;;3.53;;
24233;SDS011;12365;43.554;1.388;2022-12-05T15:31:23;7.53;;;3.00;;
24233;SDS011;12365;43.554;1.388;2022-12-05T15:33:51;6.68;;;3.05;;
24233;SDS011;12365;43.554;1.388;2022-12-05T15:36:19;4.85;;;2.95;;
24233;SDS011;12365;43.554;1.388;2022-12-05T15:38:53;4.57;;;3.10;;
24233;SDS011;12365;43.554;1.388;2022-12-05T15:41:18;6.13;;;3.33;;
24233;SDS011;12365;43.554;1.388;2022-12-05T15:43:46;5.35;;;3.30;;
24233;SDS011;12365;43.554;1.388;2022-12-05T15:46:20;7.45;;;3.67;;
24233;SDS011;12365;43.554;1.388;2022-12-05T15:48:51;5.53;;;3.28;;
24233;SDS011;12365;43.554;1.388;2022-12-05T15:51:22;8.02;;;3.63;;
24233;SDS011;12365;43.554;1.388;2022-12-05T15:56:42;8.57;;;3.83;;
24233;SDS011;12365;43.554;1.388;2022-12-05T15:59:18;6.38;;;3.50;;
24233;SDS011;12365;43.554;1.388;2022-12-05T16:01:59;7.22;;;4.20;;
24233;SDS011;12365;43.554;1.388;2022-12-05T16:04:44;7.40;;;4.30;;
24233;SDS011;12365;43.554;1.388;2022-12-05T16:07:14;8.18;;;4.57;;
24233;SDS011;12365;43.554;1.388;2022-12-05T16:09:40;9.25;;;4.90;;
24233;SDS011;12365;43.554;1.388;2022-12-05T16:12:19;9.60;;;4.60;;
24233;SDS011;12365;43.554;1.388;2022-12-05T16:14:48;9.98;;;4.80;;
24233;SDS011;12365;43.554;1.388;2022-12-05T16:17:15;7.68;;;4.68;;
24233;SDS011;12365;43.554;1.388;2022-12-05T16:19:43;8.55;;;4.60;;
24233;SDS011;12365;43.554;1.388;2022-12-05T16:24:42;9.57;;;5.47;;
24233;SDS011;12365;43.554;1.388;2022-12-05T16:29:42;13.27;;;7.22;;
24233;SDS011;12365;43.554;1.388;2022-12-05T16:32:22;10.55;;;5.60;;
24233;SDS011;12365;43.554;1.388;2022-12-05T16:34:49;25.33;;;12.90;;
24233;SDS011;12365;43.554;1.388;2022-12-05T16:37:22;35.53;;;15.90;;
24233;SDS011;12365;43.554;1.388;2022-12-05T16:39:50;22.10;;;8.98;;
24233;SDS011;12365;43.554;1.388;2022-12-05T16:42:21;25.58;;;9.68;;
24233;SDS011;12365;43.554;1.388;2022-12-05T16:47:22;18.08;;;7.10;;
24233;SDS011;12365;43.554;1.388;2022-12-05T16:49:49;21.98;;;7.60;;
24233;SDS011;12365;43.554;1.388;2022-12-05T16:52:15;16.25;;;8.02;;
24233;SDS011;12365;43.554;1.388;2022-12-05T16:54:41;17.38;;;6.68;;
24233;SDS011;12365;43.554;1.388;2022-12-05T16:57:11;22.35;;;11.70;;
24233;SDS011;12365;43.554;1.388;2022-12-05T16:59:38;21.08;;;9.15;;
24233;SDS011;12365;43.554;1.388;2022-12-05T17:04:39;35.22;;;11.90;;
24233;SDS011;12365;43.554;1.388;2022-12-05T17:07:04;40.67;;;16.45;;
24233;SDS011;12365;43.554;1.388;2022-12-05T17:09:30;45.03;;;13.82;;
24233;SDS011;12365;43.554;1.388;2022-12-05T17:12:00;49.95;;;15.90;;
24233;SDS011;12365;43.554;1.388;2022-12-05T17:14:34;48.85;;;15.05;;
24233;SDS011;12365;43.554;1.388;2022-12-05T17:17:00;178.20;;;113.07;;
24233;SDS011;12365;43.554;1.388;2022-12-05T17:19:25;53.15;;;24.17;;
24233;SDS011;12365;43.554;1.388;2022-12-05T17:21:52;44.55;;;18.35;;
24233;SDS011;12365;43.554;1.388;2022-12-05T17:24:18;30.75;;;17.90;;
24233;SDS011;12365;43.554;1.388;2022-12-05T17:26:44;32.30;;;15.73;;
24233;SDS011;12365;43.554;1.388;2022-12-05T17:29:10;37.03;;;24.30;;
24233;SDS011;12365;43.554;1.388;2022-12-05T17:31:35;16.85;;;9.48;;
24233;SDS011;12365;43.554;1.388;2022-12-05T17:34:01;10.60;;;6.07;;
24233;SDS011;12365;43.554;1.388;2022-12-05T17:36:26;10.30;;;5.75;;
24233;SDS011;12365;43.554;1.388;2022-12-05T17:38:52;33.35;;;20.05;;
24233;SDS011;12365;43.554;1.388;2022-12-05T17:41:21;31.60;;;18.83;;
24233;SDS011;12365;43.554;1.388;2022-12-05T17:43:47;11.95;;;7.13;;
24233;SDS011;12365;43.554;1.388;2022-12-05T17:46:20;6.90;;;4.45;;
24233;SDS011;12365;43.554;1.388;2022-12-05T17:48:47;8.73;;;5.97;;
24233;SDS011;12365;43.554;1.388;2022-12-05T17:51:14;7.85;;;5.10;;
24233;SDS011;12365;43.554;1.388;2022-12-05T17:53:40;13.20;;;9.20;;
24233;SDS011;12365;43.554;1.388;2022-12-05T17:56:06;19.73;;;11.32;;
24233;SDS011;12365;43.554;1.388;2022-12-05T17:58:32;8.30;;;4.97;;
24233;SDS011;12365;43.554;1.388;2022-12-05T18:00:58;7.70;;;5.05;;
24233;SDS011;12365;43.554;1.388;2022-12-05T18:03:24;12.82;;;8.02;;